createdAt,value
2023-02-15T00:01:51.936Z,21.83
2023-02-15T00:04:21.337Z,23.60
2023-02-15T00:06:48.422Z,25.65
2023-02-15T00:09:15.348Z,26.50
2023-02-15T00:11:43.530Z,26.48
2023-02-15T00:14:11.685Z,27.38
2023-02-15T00:16:39.700Z,23.60
2023-02-15T00:19:06.891Z,24.45
2023-02-15T00:21:34.401Z,24.38
2023-02-15T00:24:02.645Z,23.65
2023-02-15T00:26:29.371Z,24.55
2023-02-15T00:28:56.508Z,25.15
2023-02-15T00:31:23.467Z,22.75
2023-02-15T00:33:50.070Z,23.05
2023-02-15T00:36:16.596Z,21.75
2023-02-15T00:38:43.466Z,21.52
2023-02-15T00:41:10.873Z,21.88
2023-02-15T00:43:38.409Z,21.98
2023-02-15T00:46:06.666Z,21.42
2023-02-15T00:48:33.527Z,18.73
2023-02-15T00:51:00.834Z,18.50
2023-02-15T00:53:28.290Z,17.77
2023-02-15T00:55:54.833Z,20.08
2023-02-15T00:58:22.661Z,19.15
2023-02-15T01:00:49.460Z,18.85
2023-02-15T01:03:17.727Z,22.40
2023-02-15T01:05:44.700Z,22.08
2023-02-15T01:08:11.556Z,24.52
2023-02-15T01:10:38.585Z,25.42
2023-02-15T01:13:05.188Z,21.08
2023-02-15T01:15:36.436Z,23.38
2023-02-15T01:18:03.213Z,22.08
2023-02-15T01:20:30.288Z,22.23
2023-02-15T01:22:58.976Z,26.63
2023-02-15T01:25:25.611Z,27.95
2023-02-15T01:27:52.207Z,28.23
2023-02-15T01:30:19.065Z,23.02
2023-02-15T01:32:45.719Z,21.40
2023-02-15T01:35:12.427Z,22.38
2023-02-15T01:37:39.302Z,22.50
2023-02-15T01:40:08.649Z,23.30
2023-02-15T01:42:35.599Z,21.98
2023-02-15T01:45:05.260Z,27.65
2023-02-15T01:48:03.347Z,27.83
2023-02-15T01:50:36.029Z,26.85
2023-02-15T01:53:14.431Z,22.60
2023-02-15T01:55:45.066Z,23.85
2023-02-15T01:58:12.132Z,22.45
2023-02-15T02:00:38.740Z,24.90
2023-02-15T02:03:05.385Z,24.85
2023-02-15T02:05:32.345Z,24.35
2023-02-15T02:08:00.743Z,19.77
2023-02-15T02:10:28.067Z,21.48
2023-02-15T02:13:01.061Z,23.92
2023-02-15T02:15:44.016Z,22.15
2023-02-15T02:18:29.217Z,20.90
2023-02-15T02:21:37.905Z,20.98
2023-02-15T02:24:29.584Z,20.23
2023-02-15T02:27:17.074Z,20.33
2023-02-15T02:30:12.446Z,22.08
2023-02-15T02:33:04.180Z,20.38
2023-02-15T02:35:45.873Z,19.27
2023-02-15T02:38:39.028Z,20.42
2023-02-15T02:41:17.252Z,23.08
2023-02-15T02:43:55.397Z,23.05
2023-02-15T02:46:27.391Z,22.58
2023-02-15T02:48:55.782Z,21.35
2023-02-15T02:51:23.207Z,21.85
2023-02-15T02:53:57.228Z,21.90
2023-02-15T02:56:34.465Z,21.95
2023-02-15T02:59:07.656Z,20.67
2023-02-15T03:01:49.600Z,18.42
2023-02-15T03:04:23.910Z,19.15
2023-02-15T03:06:51.958Z,20.48
2023-02-15T03:09:35.633Z,20.70
2023-02-15T03:12:04.461Z,22.08
2023-02-15T03:14:33.774Z,23.83
2023-02-15T03:17:01.524Z,21.95
2023-02-15T03:19:30.853Z,22.02
2023-02-15T03:22:10.560Z,21.48
2023-02-15T03:24:41.980Z,20.85
2023-02-15T03:27:12.660Z,20.92
2023-02-15T03:29:40.049Z,22.30
2023-02-15T03:32:08.528Z,26.38
2023-02-15T03:34:35.242Z,24.30
2023-02-15T03:37:12.522Z,22.00
2023-02-15T03:39:48.240Z,23.00
2023-02-15T03:42:24.021Z,22.63
2023-02-15T03:45:04.980Z,24.95
2023-02-15T03:47:34.806Z,22.83
2023-02-15T03:50:05.255Z,22.63
2023-02-15T03:52:33.045Z,23.52
2023-02-15T03:54:59.809Z,24.45
2023-02-15T03:58:03.518Z,24.63
2023-02-15T04:00:58.335Z,26.00
2023-02-15T04:03:32.368Z,25.38
2023-02-15T04:05:59.256Z,24.20
2023-02-15T04:08:46.054Z,25.05
2023-02-15T04:11:12.699Z,25.30
2023-02-15T04:13:39.622Z,23.95
2023-02-15T04:16:07.600Z,25.55
2023-02-15T04:18:56.918Z,26.83
2023-02-15T04:21:43.761Z,27.35
2023-02-15T04:24:29.524Z,25.95
2023-02-15T04:26:58.942Z,31.52
2023-02-15T04:29:26.831Z,28.60
2023-02-15T04:31:54.525Z,29.13
2023-02-15T04:34:21.353Z,31.05
2023-02-15T04:36:48.000Z,29.50
2023-02-15T04:39:15.978Z,28.92
2023-02-15T04:41:42.620Z,30.00
2023-02-15T04:44:09.639Z,28.38
2023-02-15T04:46:36.396Z,29.55
2023-02-15T04:49:03.825Z,28.67
2023-02-15T04:51:30.504Z,27.75
2023-02-15T04:53:57.698Z,31.02
2023-02-15T04:56:24.338Z,31.20
2023-02-15T04:58:50.920Z,31.08
2023-02-15T05:01:18.365Z,30.50
2023-02-15T05:03:45.070Z,31.30
2023-02-15T05:06:11.730Z,30.00
2023-02-15T05:08:38.414Z,26.95
2023-02-15T05:11:04.957Z,28.48
2023-02-15T05:13:31.587Z,27.65
2023-02-15T05:15:58.250Z,27.60
2023-02-15T05:18:24.843Z,27.65
2023-02-15T05:20:51.416Z,28.17
2023-02-15T05:23:18.061Z,28.27
2023-02-15T05:26:10.186Z,25.35
2023-02-15T05:28:38.046Z,27.25
2023-02-15T05:31:20.240Z,25.50
2023-02-15T05:33:47.260Z,25.58
2023-02-15T05:36:14.133Z,24.63
2023-02-15T05:38:41.114Z,24.20
2023-02-15T05:41:08.615Z,24.17
2023-02-15T05:43:35.790Z,24.70
2023-02-15T05:46:03.256Z,23.05
2023-02-15T05:48:30.607Z,23.55
2023-02-15T05:51:09.047Z,24.83
2023-02-15T05:53:37.914Z,25.70
2023-02-15T05:56:05.561Z,26.70
2023-02-15T05:58:37.512Z,27.10
2023-02-15T06:01:18.668Z,25.95
2023-02-15T06:03:46.141Z,25.20
2023-02-15T06:06:12.841Z,25.52
2023-02-15T06:08:39.702Z,24.70
2023-02-15T06:11:06.527Z,23.90
2023-02-15T06:13:35.930Z,23.67
2023-02-15T06:16:04.370Z,24.58
2023-02-15T06:18:31.225Z,24.15
2023-02-15T06:20:57.860Z,24.10
2023-02-15T06:23:24.412Z,26.65
2023-02-15T06:25:51.072Z,24.58
2023-02-15T06:28:17.673Z,22.00
2023-02-15T06:30:44.270Z,13.32
2023-02-15T06:33:10.831Z,13.95
2023-02-15T06:35:37.430Z,14.88
2023-02-15T06:38:04.348Z,14.57
2023-02-15T06:40:30.954Z,14.20
2023-02-15T06:42:57.497Z,13.70
2023-02-15T06:45:24.109Z,13.48
2023-02-15T06:47:50.714Z,14.20
2023-02-15T06:50:17.310Z,13.55
2023-02-15T06:52:43.915Z,14.05
2023-02-15T06:55:10.491Z,13.73
2023-02-15T06:57:37.456Z,12.50
2023-02-15T07:00:05.836Z,13.23
2023-02-15T07:02:32.887Z,13.55
2023-02-15T07:04:59.572Z,14.88
2023-02-15T07:07:26.290Z,14.25
2023-02-15T07:09:52.938Z,14.00
2023-02-15T07:12:38.265Z,13.93
2023-02-15T07:15:07.296Z,14.68
2023-02-15T07:17:36.349Z,13.27
2023-02-15T07:20:09.564Z,15.13
2023-02-15T07:22:37.293Z,14.25
2023-02-15T07:25:09.045Z,13.07
2023-02-15T07:27:35.912Z,14.23
2023-02-15T07:30:02.878Z,14.98
2023-02-15T07:32:30.888Z,14.43
2023-02-15T07:34:57.601Z,15.60
2023-02-15T07:37:24.507Z,16.25
2023-02-15T07:39:51.079Z,15.18
2023-02-15T07:42:18.795Z,15.13
2023-02-15T07:44:47.031Z,12.93
2023-02-15T07:47:13.623Z,14.38
2023-02-15T07:49:40.195Z,15.60
2023-02-15T07:52:07.050Z,14.50
2023-02-15T07:54:33.584Z,15.55
2023-02-15T07:57:01.544Z,16.05
2023-02-15T07:59:28.365Z,15.80
2023-02-15T08:01:57.298Z,15.93
2023-02-15T08:04:24.613Z,16.25
2023-02-15T08:06:53.839Z,15.77
2023-02-15T08:09:20.535Z,15.38
2023-02-15T08:11:48.208Z,15.38
2023-02-15T08:14:19.776Z,15.63
2023-02-15T08:16:48.476Z,16.23
2023-02-15T08:19:19.057Z,16.65
2023-02-15T08:21:51.048Z,15.15
2023-02-15T08:24:20.486Z,15.68
2023-02-15T08:26:47.742Z,15.32
2023-02-15T08:29:15.733Z,14.95
2023-02-15T08:31:43.025Z,14.18
2023-02-15T08:34:12.304Z,14.05
2023-02-15T08:36:39.181Z,14.95
2023-02-15T08:39:06.927Z,14.88
2023-02-15T08:41:35.593Z,12.05
2023-02-15T08:44:04.444Z,12.88
2023-02-15T08:46:33.588Z,12.23
2023-02-15T08:49:00.428Z,13.60
2023-02-15T08:51:29.737Z,13.35
2023-02-15T08:53:58.125Z,11.88
2023-02-15T08:56:27.106Z,12.68
2023-02-15T08:58:54.491Z,12.05
2023-02-15T09:01:23.327Z,12.68
2023-02-15T09:03:53.808Z,13.20
2023-02-15T09:06:21.322Z,12.18
2023-02-15T09:08:47.847Z,12.98
2023-02-15T09:11:26.149Z,12.95
2023-02-15T09:13:55.473Z,13.93
2023-02-15T09:16:23.594Z,11.50
2023-02-15T09:18:51.011Z,13.00
2023-02-15T09:21:20.531Z,15.82
2023-02-15T09:23:49.574Z,16.13
2023-02-15T09:26:21.171Z,15.30
2023-02-15T09:28:49.419Z,15.65
2023-02-15T09:31:21.533Z,16.33
2023-02-15T09:33:48.901Z,15.18
2023-02-15T09:36:19.659Z,16.73
2023-02-15T09:38:47.552Z,16.08
2023-02-15T09:41:36.005Z,16.00
2023-02-15T09:44:12.606Z,21.90
2023-02-15T09:46:57.123Z,25.33
2023-02-15T09:49:36.246Z,23.55
2023-02-15T09:52:33.878Z,25.58
2023-02-15T09:55:20.865Z,26.10
2023-02-15T09:57:54.479Z,25.58
2023-02-15T10:00:36.335Z,26.60
2023-02-15T10:03:15.810Z,23.25
2023-02-15T10:06:16.680Z,26.88
2023-02-15T10:08:54.670Z,25.30
2023-02-15T10:11:41.451Z,26.30
2023-02-15T10:14:28.818Z,25.65
2023-02-15T10:17:00.863Z,27.80
2023-02-15T10:19:34.226Z,25.65
2023-02-15T10:22:29.860Z,27.98
2023-02-15T10:25:21.953Z,27.05
2023-02-15T10:27:49.956Z,26.10
2023-02-15T10:30:27.327Z,26.83
2023-02-15T10:33:00.721Z,26.73
2023-02-15T10:35:34.167Z,27.92
2023-02-15T10:38:09.780Z,26.45
2023-02-15T10:40:40.623Z,27.40
2023-02-15T10:43:16.395Z,28.23
2023-02-15T10:46:08.567Z,29.05
2023-02-15T10:49:13.549Z,27.20
2023-02-15T10:52:10.531Z,26.85
2023-02-15T10:54:47.199Z,29.13
2023-02-15T10:57:27.804Z,28.10
2023-02-15T11:00:11.874Z,27.52
2023-02-15T11:02:48.254Z,28.50
2023-02-15T11:05:28.522Z,27.20
2023-02-15T11:07:57.436Z,26.75
2023-02-15T11:10:35.313Z,28.58
2023-02-15T11:13:12.811Z,29.45
2023-02-15T11:15:44.338Z,29.20
2023-02-15T11:18:37.819Z,29.15
2023-02-15T11:21:29.335Z,28.95
2023-02-15T11:23:56.381Z,28.60
2023-02-15T11:26:25.653Z,28.92
2023-02-15T11:29:03.120Z,28.42
2023-02-15T11:31:43.593Z,28.55
2023-02-15T11:34:20.194Z,29.75
2023-02-15T11:36:47.661Z,28.40
2023-02-15T11:39:17.544Z,28.77
2023-02-15T11:41:55.095Z,28.80
2023-02-15T11:44:29.126Z,28.45
2023-02-15T11:46:55.748Z,28.75
2023-02-15T11:49:29.861Z,28.60
2023-02-15T11:51:57.121Z,29.13
2023-02-15T11:54:29.455Z,28.67
2023-02-15T11:56:57.499Z,28.00
2023-02-15T11:59:35.999Z,28.67
2023-02-15T12:02:02.629Z,27.60
2023-02-15T12:04:40.481Z,26.75
2023-02-15T12:07:18.929Z,28.23
2023-02-15T12:09:49.595Z,27.92
2023-02-15T12:12:23.625Z,27.58
2023-02-15T12:14:55.387Z,27.90
2023-02-15T12:17:24.558Z,27.92
2023-02-15T12:19:53.521Z,27.73
2023-02-15T12:22:24.777Z,27.30
2023-02-15T12:24:53.986Z,27.95
2023-02-15T12:27:23.278Z,26.20
2023-02-15T12:29:52.989Z,26.35
2023-02-15T12:32:37.012Z,24.98
2023-02-15T12:40:24.732Z,25.48
2023-02-15T12:42:51.278Z,26.35
2023-02-15T12:45:22.500Z,25.23
2023-02-15T12:48:08.756Z,24.65
2023-02-15T12:50:35.685Z,26.08
2023-02-15T12:53:11.581Z,24.73
2023-02-15T12:55:45.502Z,27.13
2023-02-15T12:58:21.476Z,26.67
2023-02-15T13:00:48.083Z,26.55
2023-02-15T13:03:22.568Z,24.73
2023-02-15T13:05:52.187Z,24.33
2023-02-15T13:08:22.471Z,26.75
2023-02-15T13:11:04.918Z,25.75
2023-02-15T13:13:35.315Z,25.92
2023-02-15T13:16:05.987Z,25.83
2023-02-15T13:18:35.812Z,26.77
2023-02-15T13:21:12.244Z,26.23
2023-02-15T13:23:40.647Z,25.85
2023-02-15T13:26:13.528Z,25.88
2023-02-15T13:28:46.707Z,27.00
2023-02-15T13:31:16.322Z,25.20
2023-02-15T13:33:46.445Z,24.27
2023-02-15T13:36:42.301Z,26.23
2023-02-15T13:39:49.613Z,27.23
2023-02-15T13:42:47.596Z,27.80
2023-02-15T13:45:34.456Z,25.42
2023-02-15T13:48:13.244Z,26.40
2023-02-15T13:51:07.556Z,26.98
2023-02-15T13:56:34.212Z,26.88
2023-02-15T13:59:08.137Z,24.88
2023-02-15T14:01:57.943Z,26.05
2023-02-15T14:04:40.747Z,23.55
2023-02-15T14:07:31.612Z,24.95
2023-02-15T14:10:18.997Z,25.15
2023-02-15T14:13:03.868Z,23.95
2023-02-15T14:15:40.446Z,24.00
2023-02-15T14:18:20.525Z,24.17
2023-02-15T14:21:18.330Z,24.30
2023-02-15T14:24:09.207Z,24.10
2023-02-15T14:26:57.286Z,25.35
2023-02-15T14:30:01.445Z,24.02
2023-02-15T14:32:39.880Z,23.65
2023-02-15T14:35:14.869Z,23.80
2023-02-15T14:37:48.371Z,24.65
2023-02-15T14:41:19.794Z,24.60
2023-02-15T14:44:14.285Z,26.10
2023-02-15T14:47:00.990Z,25.30
2023-02-15T14:49:31.266Z,24.55
2023-02-15T14:52:00.161Z,24.30
2023-02-15T14:54:26.786Z,24.40
2023-02-15T14:57:02.390Z,24.67
2023-02-15T14:59:39.761Z,26.13
2023-02-15T15:02:09.087Z,26.10
2023-02-15T15:04:44.917Z,26.95
2023-02-15T15:07:19.772Z,26.42
2023-02-15T15:09:47.857Z,25.70
2023-02-15T15:12:23.586Z,26.10
2023-02-15T15:14:51.614Z,25.58
2023-02-15T15:17:38.927Z,23.77
2023-02-15T15:20:31.752Z,25.40
2023-02-15T15:23:16.395Z,24.13
2023-02-15T15:25:47.117Z,24.65
2023-02-15T15:28:35.255Z,23.83
2023-02-15T15:31:26.042Z,24.08
2023-02-15T15:34:37.788Z,23.13
2023-02-15T15:37:25.037Z,23.58
2023-02-15T15:40:01.313Z,23.38
2023-02-15T15:43:05.612Z,22.92
2023-02-15T15:45:40.809Z,23.00
2023-02-15T15:48:34.808Z,24.38
2023-02-15T15:51:11.019Z,23.83
2023-02-15T15:53:49.309Z,22.90
2023-02-15T15:56:36.154Z,22.88
2023-02-15T15:59:08.068Z,23.38
2023-02-15T16:01:42.262Z,23.10
2023-02-15T16:04:14.472Z,24.40
2023-02-15T16:06:41.576Z,23.80
2023-02-15T16:09:23.750Z,23.75
2023-02-15T16:12:03.515Z,23.67
2023-02-15T16:14:32.272Z,23.98
2023-02-15T16:17:01.652Z,24.67
2023-02-15T16:19:31.913Z,23.48
2023-02-15T16:22:00.255Z,24.10
2023-02-15T16:24:42.303Z,23.70
2023-02-15T16:27:29.832Z,24.70
2023-02-15T16:29:56.607Z,23.98
2023-02-15T16:32:27.855Z,23.83
2023-02-15T16:34:59.932Z,23.77
2023-02-15T16:37:28.840Z,22.75
2023-02-15T16:39:56.558Z,22.90
2023-02-15T16:42:24.171Z,22.63
2023-02-15T16:44:55.362Z,22.05
2023-02-15T16:47:30.268Z,23.88
2023-02-15T16:50:00.024Z,23.80
2023-02-15T16:52:27.976Z,23.55
2023-02-15T16:55:04.939Z,24.88
2023-02-15T16:57:35.233Z,25.08
2023-02-15T17:00:19.696Z,23.67
2023-02-15T17:03:01.030Z,23.58
2023-02-15T17:05:40.911Z,24.23
2023-02-15T17:08:16.946Z,25.20
2023-02-15T17:10:47.031Z,22.52
2023-02-15T17:13:15.508Z,25.30
2023-02-15T17:15:44.423Z,24.88
2023-02-15T17:18:20.894Z,25.77
2023-02-15T17:20:49.664Z,24.77
2023-02-15T17:23:41.429Z,26.27
2023-02-15T17:26:19.856Z,25.13
2023-02-15T17:28:48.674Z,27.20
2023-02-15T17:31:17.729Z,26.95
2023-02-15T17:33:45.237Z,27.75
2023-02-15T17:36:20.205Z,27.80
2023-02-15T17:38:59.013Z,27.33
2023-02-15T17:41:29.678Z,26.42
2023-02-15T17:43:56.708Z,28.95
2023-02-15T17:46:24.354Z,28.10
2023-02-15T17:48:53.376Z,28.52
2023-02-15T17:51:21.133Z,27.98
2023-02-15T17:54:07.400Z,28.38
2023-02-15T17:56:34.339Z,28.50
2023-02-15T17:59:00.958Z,28.15
2023-02-15T18:01:46.151Z,29.48
2023-02-15T18:04:33.011Z,28.02
2023-02-15T18:07:18.874Z,27.23
2023-02-15T18:10:03.994Z,27.92
2023-02-15T18:12:32.538Z,29.17
2023-02-15T18:14:59.502Z,28.90
2023-02-15T18:17:33.359Z,29.88
2023-02-15T18:20:01.487Z,29.42
2023-02-15T18:22:28.469Z,30.70
2023-02-15T18:24:55.105Z,31.38
2023-02-15T18:27:22.485Z,30.35
2023-02-15T18:29:49.167Z,30.98
2023-02-15T18:32:23.727Z,28.83
2023-02-15T18:34:50.539Z,30.35
2023-02-15T18:37:20.046Z,28.13
2023-02-15T18:39:48.573Z,27.25
2023-02-15T18:42:22.567Z,28.15
2023-02-15T18:44:50.589Z,27.30
2023-02-15T18:47:17.117Z,27.25
2023-02-15T18:49:43.685Z,26.75
2023-02-15T18:52:16.384Z,27.73
2023-02-15T18:54:43.721Z,28.23
2023-02-15T18:57:13.183Z,26.92
2023-02-15T18:59:39.752Z,28.50
2023-02-15T19:02:13.268Z,28.33
2023-02-15T19:04:39.846Z,29.20
2023-02-15T19:07:08.951Z,27.10
2023-02-15T19:09:35.569Z,28.13
2023-02-15T19:12:02.197Z,28.95
2023-02-15T19:14:31.546Z,28.90
2023-02-15T19:16:59.725Z,29.85
2023-02-15T19:19:27.247Z,29.80
2023-02-15T19:21:54.159Z,29.30
2023-02-15T19:24:33.954Z,29.80
2023-02-15T19:27:00.527Z,29.92
2023-02-15T19:29:30.306Z,30.88
2023-02-15T19:31:58.016Z,30.23
2023-02-15T19:34:24.746Z,29.67
2023-02-15T19:36:52.555Z,30.35
2023-02-15T19:39:29.238Z,29.48
2023-02-15T19:41:56.150Z,29.92
2023-02-15T19:44:22.784Z,31.20
2023-02-15T19:46:49.501Z,30.67
2023-02-15T19:49:16.210Z,29.55
2023-02-15T19:51:42.840Z,29.90
2023-02-15T19:54:20.218Z,31.67
2023-02-15T19:56:46.852Z,31.23
2023-02-15T19:59:42.921Z,30.15
2023-02-15T20:02:18.027Z,31.35
2023-02-15T20:04:44.918Z,30.42
2023-02-15T20:07:28.133Z,31.23
2023-02-15T20:09:54.771Z,31.27
2023-02-15T20:12:26.066Z,32.05
2023-02-15T20:14:53.058Z,31.05
2023-02-15T20:17:19.781Z,31.50
2023-02-15T20:19:46.374Z,32.53
2023-02-15T20:22:26.554Z,33.95
2023-02-15T20:24:56.224Z,32.88
2023-02-15T20:27:23.461Z,34.90
2023-02-15T20:29:50.720Z,33.10
2023-02-15T20:32:17.598Z,32.70
2023-02-15T20:34:44.246Z,33.05
2023-02-15T20:37:26.275Z,32.00
2023-02-15T20:39:52.902Z,31.63
2023-02-15T20:42:19.615Z,30.63
2023-02-15T20:44:46.276Z,32.00
2023-02-15T20:47:12.947Z,31.60
2023-02-15T20:49:39.537Z,31.98
2023-02-15T20:52:19.174Z,33.17
2023-02-15T20:54:46.799Z,31.83
2023-02-15T20:57:13.632Z,32.97
2023-02-15T20:59:40.884Z,33.80
2023-02-15T21:02:23.453Z,33.53
2023-02-15T21:04:50.179Z,33.63
2023-02-15T21:07:19.165Z,32.55
2023-02-15T21:09:46.579Z,32.15
2023-02-15T21:12:18.347Z,31.42
2023-02-15T21:14:45.010Z,34.65
2023-02-15T21:17:16.097Z,32.25
2023-02-15T21:19:42.991Z,32.38
2023-02-15T21:22:12.455Z,34.60
2023-02-15T21:24:39.251Z,32.70
2023-02-15T21:27:06.953Z,34.72
2023-02-15T21:29:33.632Z,34.17
2023-02-15T21:32:01.265Z,34.97
2023-02-15T21:34:27.897Z,35.42
2023-02-15T21:36:54.598Z,33.05
2023-02-15T21:39:23.294Z,34.30
2023-02-15T21:42:10.019Z,34.80
2023-02-15T21:44:55.151Z,36.42
2023-02-15T21:47:41.381Z,33.47
2023-02-15T21:50:28.794Z,35.28
2023-02-15T21:52:55.770Z,36.10
2023-02-15T21:55:22.343Z,36.65
2023-02-15T21:57:48.917Z,32.15
2023-02-15T22:00:20.688Z,36.83
2023-02-15T22:02:48.938Z,36.97
2023-02-15T22:05:35.763Z,36.33
2023-02-15T22:08:02.328Z,36.28
2023-02-15T22:10:31.011Z,38.75
2023-02-15T22:12:59.612Z,33.90
2023-02-15T22:15:27.440Z,36.33
2023-02-15T22:17:54.019Z,36.42
2023-02-15T22:20:23.706Z,36.95
2023-02-15T22:22:51.691Z,39.15
2023-02-15T22:25:22.037Z,35.92
2023-02-15T22:27:49.897Z,37.58
2023-02-15T22:30:19.362Z,38.13
2023-02-15T22:32:46.228Z,37.58
2023-02-15T22:35:17.709Z,37.08
2023-02-15T22:37:44.295Z,36.63
2023-02-15T22:40:14.886Z,36.05
2023-02-15T22:42:41.725Z,37.03
2023-02-15T22:45:16.179Z,38.55
2023-02-15T22:47:42.799Z,37.75
2023-02-15T22:50:38.719Z,37.92
2023-02-15T22:53:05.275Z,37.83
2023-02-15T22:55:33.952Z,38.47
2023-02-15T22:58:00.716Z,36.45
2023-02-15T23:00:30.592Z,34.88
2023-02-15T23:02:57.261Z,39.33
2023-02-15T23:05:26.666Z,37.95
2023-02-15T23:07:53.366Z,38.35
2023-02-15T23:10:22.061Z,38.65
2023-02-15T23:13:15.475Z,37.47
2023-02-15T23:15:43.716Z,37.53
2023-02-15T23:18:16.972Z,37.92
2023-02-15T23:20:45.145Z,39.47
2023-02-15T23:23:13.125Z,39.13
2023-02-15T23:25:40.560Z,38.75
2023-02-15T23:28:18.661Z,37.08
2023-02-15T23:30:46.151Z,37.53
2023-02-15T23:33:12.954Z,37.45
2023-02-15T23:35:39.823Z,39.47
2023-02-15T23:38:18.075Z,36.08
2023-02-15T23:41:07.507Z,36.28
2023-02-15T23:43:34.344Z,37.90
2023-02-15T23:46:01.082Z,36.92
2023-02-15T23:48:38.507Z,37.42
2023-02-15T23:51:10.225Z,36.00
2023-02-15T23:53:36.792Z,36.72
2023-02-15T23:56:03.631Z,34.92
2023-02-15T23:58:36.284Z,37.80
